createdAt,value
2022-11-03T00:00:12.998Z,19.30
2022-11-03T00:02:40.592Z,8.93
2022-11-03T00:05:34.983Z,9.63
2022-11-03T00:08:05.655Z,10.30
2022-11-03T00:10:33.093Z,7.57
2022-11-03T00:13:07.197Z,8.83
2022-11-03T00:15:34.968Z,11.17
2022-11-03T00:18:02.428Z,8.10
2022-11-03T00:20:35.983Z,13.13
2022-11-03T00:23:03.661Z,8.87
2022-11-03T00:25:31.336Z,11.57
2022-11-03T00:28:05.022Z,9.70
2022-11-03T00:30:32.446Z,10.23
2022-11-03T00:33:00.025Z,10.43
2022-11-03T00:35:33.979Z,12.83
2022-11-03T00:38:01.416Z,11.27
2022-11-03T00:40:28.857Z,11.03
2022-11-03T00:43:03.122Z,9.47
2022-11-03T00:45:30.672Z,9.80
2022-11-03T00:48:23.018Z,10.30
2022-11-03T00:50:50.411Z,13.27
2022-11-03T00:53:17.788Z,12.73
2022-11-03T00:55:56.976Z,10.83
2022-11-03T00:58:24.375Z,12.67
2022-11-03T01:01:05.054Z,9.20
2022-11-03T01:03:37.066Z,10.60
2022-11-03T01:06:36.957Z,10.60
2022-11-03T01:09:04.666Z,12.53
2022-11-03T01:11:51.244Z,11.43
2022-11-03T01:14:18.735Z,8.23
2022-11-03T01:16:46.173Z,16.33
2022-11-03T01:19:32.969Z,18.27
2022-11-03T01:22:00.400Z,14.53
2022-11-03T01:24:27.923Z,7.80
2022-11-03T01:27:01.994Z,9.40
2022-11-03T01:29:29.524Z,14.00
2022-11-03T01:31:57.701Z,6.17
2022-11-03T01:34:31.997Z,10.10
2022-11-03T01:37:06.046Z,10.33
2022-11-03T01:39:39.982Z,10.03
2022-11-03T01:42:07.409Z,12.20
2022-11-03T01:44:37.714Z,16.57
2022-11-03T01:47:15.983Z,11.43
2022-11-03T01:49:47.806Z,7.27
2022-11-03T01:52:34.961Z,12.80
2022-11-03T01:55:10.898Z,9.27
2022-11-03T01:57:50.984Z,9.13
2022-11-03T02:00:18.402Z,12.00
2022-11-03T02:02:45.960Z,14.97
2022-11-03T02:05:24.986Z,9.73
2022-11-03T02:08:05.308Z,13.77
2022-11-03T02:10:46.972Z,12.37
2022-11-03T02:13:21.250Z,12.87
2022-11-03T02:15:57.978Z,12.73
2022-11-03T02:18:29.859Z,11.63
2022-11-03T02:21:19.012Z,14.10
2022-11-03T02:24:15.642Z,12.53
2022-11-03T02:26:53.983Z,10.47
2022-11-03T02:29:21.435Z,9.50
2022-11-03T02:32:07.987Z,8.23
2022-11-03T02:35:14.990Z,9.27
2022-11-03T02:37:52.967Z,8.90
2022-11-03T02:40:25.791Z,5.87
2022-11-03T02:43:00.012Z,7.90
2022-11-03T02:45:28.084Z,14.10
2022-11-03T02:48:10.001Z,9.47
2022-11-03T02:50:37.432Z,10.23
2022-11-03T02:53:05.014Z,10.53
2022-11-03T02:55:48.013Z,15.73
2022-11-03T02:58:21.819Z,9.30
2022-11-03T03:01:21.099Z,13.57
2022-11-03T03:03:55.336Z,10.93
2022-11-03T03:06:34.981Z,12.80
2022-11-03T03:09:07.963Z,14.23
2022-11-03T03:11:46.027Z,11.53
2022-11-03T03:14:18.025Z,10.73
2022-11-03T03:17:06.985Z,14.80
2022-11-03T03:19:46.280Z,15.67
2022-11-03T03:22:35.980Z,15.53
2022-11-03T03:25:27.976Z,13.47
2022-11-03T03:28:09.002Z,15.73
2022-11-03T03:30:37.571Z,11.00
2022-11-03T03:33:07.797Z,15.33
2022-11-03T03:35:46.979Z,14.03
2022-11-03T03:38:23.028Z,13.23
2022-11-03T03:41:00.990Z,14.43
2022-11-03T03:43:30.994Z,23.17
2022-11-03T03:46:11.995Z,17.07
2022-11-03T03:48:39.636Z,12.43
2022-11-03T03:51:08.728Z,11.90
2022-11-03T03:53:42.997Z,13.97
2022-11-03T03:56:11.375Z,15.17
2022-11-03T03:58:39.045Z,17.50
2022-11-03T04:01:13.044Z,12.47
2022-11-03T04:03:40.600Z,16.23
2022-11-03T04:06:09.986Z,13.93
2022-11-03T04:08:44.033Z,12.97
2022-11-03T04:11:30.018Z,7.67
2022-11-03T04:14:22.015Z,11.33
2022-11-03T04:17:07.963Z,10.37
2022-11-03T04:20:01.010Z,11.50
2022-11-03T04:22:33.251Z,14.57
2022-11-03T04:25:08.013Z,13.40
2022-11-03T04:27:38.914Z,13.40
2022-11-03T04:30:23.005Z,9.50
2022-11-03T04:32:52.885Z,15.27
2022-11-03T04:35:35.995Z,14.53
2022-11-03T04:38:16.041Z,10.50
2022-11-03T04:40:59.085Z,11.83
2022-11-03T04:43:38.673Z,12.03
2022-11-03T04:46:16.116Z,10.47
2022-11-03T04:48:44.871Z,13.63
2022-11-03T04:51:23.995Z,11.67
2022-11-03T04:54:00.713Z,14.27
2022-11-03T04:56:36.259Z,17.70
2022-11-03T04:59:08.240Z,12.90
2022-11-03T05:01:35.814Z,11.67
2022-11-03T05:04:15.039Z,13.73
2022-11-03T05:06:47.146Z,17.23
2022-11-03T05:09:42.802Z,10.80
2022-11-03T05:12:10.944Z,15.80
2022-11-03T05:14:38.708Z,16.47
2022-11-03T05:17:33.039Z,15.13
2022-11-03T05:20:06.034Z,11.93
2022-11-03T05:22:45.055Z,15.90
2022-11-03T05:25:37.987Z,15.27
2022-11-03T05:28:23.031Z,15.60
2022-11-03T05:30:51.900Z,11.33
2022-11-03T05:33:52.032Z,18.40
2022-11-03T05:36:29.286Z,16.10
2022-11-03T05:39:23.002Z,12.10
2022-11-03T05:41:50.789Z,21.97
2022-11-03T05:44:44.035Z,21.57
2022-11-03T05:47:37.486Z,22.70
2022-11-03T05:50:21.023Z,15.40
2022-11-03T05:52:51.381Z,17.03
2022-11-03T05:55:40.029Z,14.07
2022-11-03T05:58:37.602Z,19.90
2022-11-03T06:01:27.124Z,22.83
2022-11-03T06:04:01.284Z,14.43
2022-11-03T06:06:45.030Z,18.93
2022-11-03T06:09:23.679Z,19.73
2022-11-03T06:12:00.038Z,18.47
2022-11-03T06:14:30.709Z,14.27
2022-11-03T06:17:14.038Z,15.27
2022-11-03T06:19:50.299Z,18.10
2022-11-03T06:22:27.073Z,20.37
2022-11-03T06:25:11.210Z,15.73
2022-11-03T06:27:46.065Z,15.87
2022-11-03T06:30:46.289Z,15.63
2022-11-03T06:33:23.063Z,14.67
2022-11-03T06:36:00.656Z,19.23
2022-11-03T06:38:41.009Z,13.90
2022-11-03T06:41:20.690Z,17.23
2022-11-03T06:43:55.057Z,15.47
2022-11-03T06:46:25.421Z,16.30
2022-11-03T06:49:11.064Z,15.10
2022-11-03T06:51:38.749Z,14.53
2022-11-03T06:54:09.683Z,17.47
2022-11-03T06:56:45.053Z,13.77
2022-11-03T06:59:15.858Z,13.40
2022-11-03T07:01:53.149Z,13.27
2022-11-03T07:04:28.649Z,8.77
2022-11-03T07:07:09.071Z,10.67
2022-11-03T07:09:36.766Z,9.60
2022-11-03T07:12:16.073Z,8.93
2022-11-03T07:14:44.227Z,9.23
2022-11-03T07:17:28.065Z,10.83
2022-11-03T07:19:55.628Z,10.27
2022-11-03T07:22:26.094Z,7.17
2022-11-03T07:25:06.089Z,10.03
2022-11-03T07:27:40.052Z,8.87
2022-11-03T07:30:30.053Z,7.93
2022-11-03T07:33:14.881Z,7.27
2022-11-03T07:36:15.444Z,7.07
2022-11-03T07:38:49.076Z,12.27
2022-11-03T07:41:34.087Z,7.87
2022-11-03T07:44:02.894Z,11.10
2022-11-03T07:46:30.842Z,11.83
2022-11-03T07:49:09.078Z,8.00
2022-11-03T07:51:41.719Z,8.47
2022-11-03T07:54:09.199Z,11.13
2022-11-03T07:56:55.442Z,11.07
2022-11-03T07:59:36.854Z,11.30
2022-11-03T08:02:36.589Z,9.50
2022-11-03T08:05:04.906Z,7.43
2022-11-03T08:07:33.165Z,9.43
2022-11-03T08:10:09.632Z,10.60
2022-11-03T08:12:37.489Z,9.43
2022-11-03T08:15:05.631Z,13.00
2022-11-03T08:17:39.632Z,11.17
2022-11-03T08:20:07.592Z,12.27
2022-11-03T08:22:35.108Z,11.90
2022-11-03T08:25:09.622Z,7.95
2022-11-03T08:27:37.255Z,8.50
2022-11-03T08:30:04.812Z,9.82
2022-11-03T08:32:38.733Z,9.75
2022-11-03T08:35:12.693Z,9.88
2022-11-03T08:37:53.652Z,6.40
2022-11-03T08:40:21.072Z,8.10
2022-11-03T08:42:49.796Z,9.18
2022-11-03T08:45:24.838Z,7.88
2022-11-03T08:47:52.604Z,7.03
2022-11-03T08:50:20.092Z,6.32
2022-11-03T08:52:53.639Z,7.20
2022-11-03T08:55:21.314Z,5.95
2022-11-03T08:57:49.504Z,7.20
2022-11-03T09:00:26.316Z,5.93
2022-11-03T09:02:54.803Z,6.13
2022-11-03T09:05:22.318Z,6.07
2022-11-03T09:10:43.928Z,5.28
2022-11-03T09:13:18.357Z,5.82
2022-11-03T09:15:45.832Z,7.18
2022-11-03T09:18:13.467Z,3.65
2022-11-03T09:20:47.251Z,5.22
2022-11-03T09:23:14.897Z,5.15
2022-11-03T09:25:42.434Z,6.55
2022-11-03T09:28:16.329Z,5.78
2022-11-03T09:30:43.937Z,6.65
2022-11-03T09:33:11.739Z,4.78
2022-11-03T09:35:46.380Z,4.47
2022-11-03T09:38:14.221Z,5.57
2022-11-03T09:40:42.100Z,6.70
2022-11-03T09:43:17.441Z,7.80
2022-11-03T09:45:45.419Z,5.05
2022-11-03T09:48:13.686Z,4.35
2022-11-03T09:50:48.283Z,6.28
2022-11-03T09:53:16.182Z,4.93
2022-11-03T09:55:43.724Z,5.05
2022-11-03T09:58:23.443Z,7.03
2022-11-03T10:00:51.669Z,4.13
2022-11-03T10:03:20.920Z,6.90
2022-11-03T10:05:55.269Z,6.05
2022-11-03T10:08:32.198Z,5.45
2022-11-03T10:11:07.492Z,5.10
2022-11-03T10:13:41.460Z,5.57
2022-11-03T10:16:18.353Z,3.78
2022-11-03T10:18:46.059Z,3.88
2022-11-03T10:21:16.801Z,6.95
2022-11-03T10:23:52.565Z,5.28
2022-11-03T10:26:21.387Z,3.28
2022-11-03T10:29:09.550Z,4.18
2022-11-03T10:31:44.014Z,5.45
2022-11-03T10:34:41.317Z,2.83
2022-11-03T10:37:29.719Z,5.07
2022-11-03T10:40:13.255Z,2.63
2022-11-03T10:42:59.715Z,3.92
2022-11-03T10:45:34.601Z,5.47
2022-11-03T10:48:12.265Z,4.07
2022-11-03T10:50:48.288Z,6.65
2022-11-03T10:53:20.436Z,5.35
2022-11-03T10:55:48.253Z,4.55
2022-11-03T10:58:22.310Z,3.75
2022-11-03T11:00:49.804Z,4.95
2022-11-03T11:03:20.723Z,4.35
2022-11-03T11:05:56.347Z,3.58
2022-11-03T11:08:24.672Z,4.80
2022-11-03T11:10:53.922Z,5.57
2022-11-03T11:13:34.345Z,4.35
2022-11-03T11:16:03.044Z,4.20
2022-11-03T11:18:30.485Z,2.92
2022-11-03T11:21:08.390Z,4.45
2022-11-03T11:23:35.856Z,3.22
2022-11-03T11:26:31.292Z,4.82
2022-11-03T11:29:15.728Z,5.05
2022-11-03T11:31:53.314Z,4.97
2022-11-03T11:34:21.089Z,6.97
2022-11-03T11:37:02.340Z,5.30
2022-11-03T11:39:31.232Z,4.20
2022-11-03T11:42:28.357Z,5.50
2022-11-03T11:45:03.052Z,6.45
2022-11-03T11:47:57.322Z,4.22
2022-11-03T11:50:29.351Z,4.55
2022-11-03T11:53:19.348Z,2.90
2022-11-03T11:55:51.838Z,5.05
2022-11-03T11:58:31.296Z,3.03
2022-11-03T12:01:21.897Z,3.28
2022-11-03T12:03:58.416Z,6.07
2022-11-03T12:06:39.910Z,3.38
2022-11-03T12:09:15.328Z,4.63
2022-11-03T12:11:48.328Z,3.40
2022-11-03T12:14:40.326Z,3.22
2022-11-03T12:17:20.091Z,3.60
2022-11-03T12:19:58.317Z,2.15
2022-11-03T12:22:28.747Z,3.90
2022-11-03T12:25:11.363Z,3.30
2022-11-03T12:27:38.951Z,4.10
2022-11-03T12:30:21.336Z,3.13
2022-11-03T12:32:49.073Z,5.35
2022-11-03T12:35:30.316Z,5.30
2022-11-03T12:38:05.045Z,4.38
2022-11-03T12:40:39.334Z,3.03
2022-11-03T12:43:07.252Z,5.10
2022-11-03T12:45:34.903Z,3.92
2022-11-03T12:48:09.474Z,4.10
2022-11-03T12:50:38.055Z,7.35
2022-11-03T12:53:20.283Z,4.70
2022-11-03T12:55:47.885Z,3.88
2022-11-03T12:58:15.482Z,5.68
2022-11-03T13:00:53.864Z,4.57
2022-11-03T13:03:22.855Z,6.20
2022-11-03T13:05:56.315Z,5.00
2022-11-03T13:08:24.769Z,4.88
2022-11-03T13:10:53.945Z,4.78
2022-11-03T13:13:28.368Z,10.15
2022-11-03T13:15:56.012Z,3.67
2022-11-03T13:18:23.683Z,3.83
2022-11-03T13:20:58.429Z,3.17
2022-11-03T13:23:25.942Z,4.43
2022-11-03T13:25:53.902Z,5.18
2022-11-03T13:28:28.342Z,5.10
2022-11-03T13:30:55.747Z,4.38
2022-11-03T13:33:23.429Z,6.63
2022-11-03T13:35:57.370Z,3.65
2022-11-03T13:38:24.889Z,6.20
2022-11-03T13:40:57.005Z,4.75
2022-11-03T13:43:32.332Z,3.40
2022-11-03T13:46:02.464Z,2.53
2022-11-03T13:51:25.370Z,4.25
2022-11-03T13:59:36.834Z,4.38
2022-11-03T14:05:00.112Z,3.85
2022-11-03T14:07:34.641Z,6.00
2022-11-03T14:10:04.028Z,5.88
2022-11-03T14:12:32.279Z,5.35
2022-11-03T14:15:07.707Z,5.78
2022-11-03T14:17:36.655Z,5.65
2022-11-03T14:20:05.665Z,3.65
2022-11-03T14:22:40.382Z,5.57
2022-11-03T14:25:08.906Z,7.53
2022-11-03T14:27:36.446Z,3.90
2022-11-03T14:30:11.397Z,5.20
2022-11-03T14:32:40.815Z,6.30
2022-11-03T14:35:29.360Z,6.53
2022-11-03T14:37:56.940Z,5.07
2022-11-03T14:40:49.336Z,6.20
2022-11-03T14:43:16.911Z,5.68
2022-11-03T14:45:44.377Z,4.75
2022-11-03T14:48:18.343Z,5.68
2022-11-03T14:50:45.783Z,6.35
2022-11-03T14:53:13.262Z,5.57
2022-11-03T14:55:47.363Z,6.70
2022-11-03T14:58:15.032Z,7.32
2022-11-03T15:00:42.757Z,6.57
2022-11-03T15:03:16.420Z,8.50
2022-11-03T15:05:44.253Z,5.68
2022-11-03T15:08:23.409Z,7.43
2022-11-03T15:10:51.468Z,7.30
2022-11-03T15:13:19.169Z,7.53
2022-11-03T15:15:54.744Z,6.10
2022-11-03T15:18:22.387Z,8.27
2022-11-03T15:20:50.076Z,5.53
2022-11-03T15:26:12.851Z,7.90
2022-11-03T15:28:49.376Z,5.88
2022-11-03T15:31:16.840Z,7.05
2022-11-03T15:33:44.538Z,5.55
2022-11-03T15:36:18.386Z,5.68
2022-11-03T15:38:52.583Z,5.90
2022-11-03T15:41:27.387Z,7.40
2022-11-03T15:43:54.776Z,6.38
2022-11-03T15:46:22.360Z,8.95
2022-11-03T15:48:56.672Z,7.32
2022-11-03T15:51:24.296Z,7.03
2022-11-03T15:53:57.812Z,5.75
2022-11-03T15:56:33.345Z,5.05
2022-11-03T15:59:00.803Z,8.63
2022-11-03T16:01:28.397Z,6.03
2022-11-03T16:04:02.572Z,7.72
2022-11-03T16:09:24.347Z,6.97
2022-11-03T16:11:51.788Z,6.05
2022-11-03T16:14:19.649Z,6.75
2022-11-03T16:16:53.365Z,5.38
2022-11-03T16:19:20.810Z,7.97
2022-11-03T16:21:48.637Z,6.45
2022-11-03T16:24:22.366Z,5.60
2022-11-03T16:26:52.537Z,9.20
2022-11-03T16:29:20.033Z,6.93
2022-11-03T16:31:57.335Z,12.65
2022-11-03T16:34:24.927Z,6.22
2022-11-03T16:37:05.359Z,7.15
2022-11-03T16:39:34.007Z,6.70
2022-11-03T16:42:03.306Z,7.25
2022-11-03T16:44:37.360Z,6.80
2022-11-03T16:47:05.443Z,5.80
2022-11-03T16:49:33.026Z,9.82
2022-11-03T16:52:07.408Z,7.72
2022-11-03T16:54:35.190Z,10.40
2022-11-03T16:57:02.739Z,6.25
2022-11-03T16:59:36.459Z,6.00
2022-11-03T17:02:04.163Z,9.52
2022-11-03T17:04:31.862Z,8.48
2022-11-03T17:07:05.430Z,6.90
2022-11-03T17:09:32.862Z,5.85
2022-11-03T17:12:00.298Z,9.15
2022-11-03T17:14:34.376Z,4.35
2022-11-03T17:17:01.873Z,5.70
2022-11-03T17:19:29.385Z,4.03
2022-11-03T17:22:03.421Z,4.25
2022-11-03T17:24:30.887Z,4.55
2022-11-03T17:27:18.389Z,4.95
2022-11-03T17:29:50.362Z,6.05
2022-11-03T17:32:32.389Z,4.57
2022-11-03T17:34:59.901Z,7.47
2022-11-03T17:37:42.401Z,7.88
2022-11-03T17:40:18.379Z,5.38
2022-11-03T17:42:52.368Z,7.32
2022-11-03T17:45:24.707Z,6.83
2022-11-03T17:47:52.267Z,6.25
2022-11-03T17:50:28.366Z,6.10
2022-11-03T17:52:55.757Z,8.47
2022-11-03T17:55:38.381Z,6.43
2022-11-03T17:58:06.478Z,3.58
2022-11-03T18:00:35.784Z,3.35
2022-11-03T18:03:16.375Z,3.20
2022-11-03T18:05:44.491Z,5.18
2022-11-03T18:08:13.293Z,3.60
2022-11-03T18:10:53.427Z,6.32
2022-11-03T18:13:30.140Z,4.22
2022-11-03T18:16:10.367Z,5.07
2022-11-03T18:18:43.759Z,3.37
2022-11-03T18:21:29.466Z,5.85
2022-11-03T18:23:59.435Z,8.43
2022-11-03T18:26:27.709Z,7.77
2022-11-03T18:29:01.462Z,4.50
2022-11-03T18:31:35.363Z,6.00
2022-11-03T18:34:16.380Z,6.47
2022-11-03T18:36:52.322Z,5.87
2022-11-03T18:39:34.411Z,6.33
2022-11-03T18:42:01.915Z,11.13
2022-11-03T18:44:30.674Z,6.93
2022-11-03T18:47:06.401Z,21.60
2022-11-03T18:49:34.039Z,7.00
2022-11-03T18:52:19.418Z,9.30
2022-11-03T18:54:53.588Z,9.70
2022-11-03T18:57:34.414Z,8.03
2022-11-03T19:00:02.722Z,10.50
2022-11-03T19:02:30.545Z,10.90
2022-11-03T19:05:05.728Z,8.27
2022-11-03T19:07:39.804Z,8.43
2022-11-03T19:10:17.454Z,9.80
2022-11-03T19:12:45.563Z,9.80
2022-11-03T19:15:39.444Z,9.90
2022-11-03T19:18:08.878Z,8.77
2022-11-03T19:20:46.405Z,6.53
2022-11-03T19:23:14.303Z,14.17
2022-11-03T19:25:43.822Z,8.23
2022-11-03T19:28:20.463Z,8.93
2022-11-03T19:30:48.228Z,8.07
2022-11-03T19:33:35.781Z,9.97
2022-11-03T19:36:03.717Z,7.37
2022-11-03T19:38:32.636Z,5.30
2022-11-03T19:41:25.462Z,8.30
2022-11-03T19:43:53.060Z,4.70
2022-11-03T19:46:20.891Z,4.90
2022-11-03T19:48:55.437Z,5.53
2022-11-03T19:51:26.149Z,4.30
2022-11-03T19:54:03.463Z,5.27
2022-11-03T19:56:31.151Z,4.83
2022-11-03T19:59:16.202Z,4.87
2022-11-03T20:01:46.119Z,4.63
2022-11-03T20:04:20.441Z,4.00
2022-11-03T20:06:47.930Z,3.57
2022-11-03T20:09:19.043Z,4.57
2022-11-03T20:11:53.430Z,3.10
2022-11-03T20:14:26.206Z,4.30
2022-11-03T20:17:21.433Z,3.60
2022-11-03T20:19:48.880Z,3.70
2022-11-03T20:22:34.449Z,4.43
2022-11-03T20:25:05.416Z,4.43
2022-11-03T20:27:33.000Z,4.83
2022-11-03T20:30:07.554Z,3.80
2022-11-03T20:32:41.716Z,4.20
2022-11-03T20:35:24.172Z,6.27
2022-11-03T20:37:56.281Z,3.60
2022-11-03T20:40:32.436Z,3.70
2022-11-03T20:43:02.222Z,5.80
2022-11-03T20:45:32.089Z,3.07
2022-11-03T20:48:06.797Z,4.00
2022-11-03T20:50:37.438Z,3.67
2022-11-03T20:53:21.414Z,4.03
2022-11-03T20:55:49.041Z,4.00
2022-11-03T20:58:18.200Z,5.40
2022-11-03T21:00:54.546Z,4.20
2022-11-03T21:03:45.072Z,5.07
2022-11-03T21:06:24.464Z,3.23
2022-11-03T21:08:52.426Z,4.13
2022-11-03T21:11:23.624Z,3.53
2022-11-03T21:14:23.458Z,4.07
2022-11-03T21:17:11.104Z,5.93
2022-11-03T21:20:03.444Z,4.10
2022-11-03T21:22:57.929Z,4.63
2022-11-03T21:25:32.438Z,2.10
2022-11-03T21:27:59.854Z,2.60
2022-11-03T21:30:27.286Z,3.33
2022-11-03T21:33:01.424Z,1.83
2022-11-03T21:35:35.763Z,2.30
2022-11-03T21:38:09.741Z,1.90
2022-11-03T21:40:42.836Z,3.10
2022-11-03T21:43:36.446Z,1.53
2022-11-03T21:46:22.111Z,3.30
2022-11-03T21:49:14.579Z,4.63
2022-11-03T21:51:42.082Z,5.50
2022-11-03T21:54:12.692Z,4.17
2022-11-03T21:56:46.515Z,1.30
2022-11-03T21:59:14.080Z,3.80
2022-11-03T22:01:41.670Z,1.30
2022-11-03T22:04:15.505Z,1.27
2022-11-03T22:06:46.111Z,1.37
2022-11-03T22:09:14.005Z,1.00
2022-11-03T22:11:48.448Z,3.93
2022-11-03T22:14:16.021Z,2.67
2022-11-03T22:16:57.508Z,1.83
2022-11-03T22:19:43.859Z,2.10
2022-11-03T22:22:39.464Z,1.20
2022-11-03T22:25:31.480Z,1.33
2022-11-03T22:28:07.861Z,2.00
2022-11-03T22:31:01.241Z,1.33
2022-11-03T22:34:02.451Z,2.00
2022-11-03T22:36:29.911Z,1.97
2022-11-03T22:39:22.609Z,4.63
2022-11-03T22:42:15.545Z,2.73
2022-11-03T22:45:08.688Z,3.93
2022-11-03T22:47:36.451Z,1.93
2022-11-03T22:50:06.984Z,1.83
2022-11-03T22:52:44.649Z,1.90
2022-11-03T22:55:21.231Z,4.20
2022-11-03T22:57:55.456Z,2.00
2022-11-03T23:00:22.881Z,1.90
2022-11-03T23:02:53.969Z,2.37
2022-11-03T23:05:27.472Z,1.50
2022-11-03T23:07:54.891Z,2.37
2022-11-03T23:10:34.464Z,4.43
2022-11-03T23:13:01.927Z,2.17
2022-11-03T23:15:32.065Z,2.30
2022-11-03T23:18:26.420Z,2.23
2022-11-03T23:21:08.776Z,3.20
2022-11-03T23:24:05.457Z,1.50
2022-11-03T23:26:32.921Z,2.57
2022-11-03T23:29:00.467Z,1.60
2022-11-03T23:31:34.478Z,1.97
2022-11-03T23:34:08.763Z,1.37
2022-11-03T23:36:43.454Z,1.00
2022-11-03T23:39:15.696Z,2.03
2022-11-03T23:41:50.428Z,1.37
2022-11-03T23:44:18.002Z,2.10
2022-11-03T23:47:11.446Z,1.43
2022-11-03T23:49:38.808Z,1.33
2022-11-03T23:52:06.474Z,0.90
2022-11-03T23:54:42.471Z,1.40
2022-11-03T23:57:30.378Z,1.90
